Time;durP1;ratioP1;P1;durP2;ratioP2;P2;SDS_P1;SDS_P2;PMS_P1;PMS_P2;Temp;Humidity;BMP_temperature;BMP_pressure;BME280_temperature;BME280_humidity;BME280_pressure;Samples;Min_cycle;Max_cycle;Signal;HPM_P1;HPM_P2
2022/07/18 00:01:59;;;;;;;;;;;14.90;99.90;;;14.00;91.95;102130.81;5015753;28;19912;-76
2022/07/18 00:04:25;;;;;;;;;;;14.90;99.90;;;14.00;91.21;102117.56;4999866;28;19909;-76
2022/07/18 00:06:52;;;;;;;;;;;14.90;99.90;;;14.04;91.29;102113.84;5010307;28;19955;-76
2022/07/18 00:09:19;;;;;;;;;;;15.00;99.90;;;14.05;90.99;102116.44;5012068;28;19979;-76
2022/07/18 00:11:45;;;;;;;;;;;15.00;99.90;;;14.08;90.90;102116.34;5007142;28;20042;-76
2022/07/18 00:14:11;;;;;;;;;;;15.00;99.90;;;14.11;91.12;102115.34;4984012;28;20454;-76
2022/07/18 00:16:37;;;;;;;;;;;15.00;99.90;;;14.11;91.66;102116.22;4983871;28;19969;-76
2022/07/18 00:19:03;;;;;;;;;;;15.00;99.90;;;14.14;91.51;102117.88;5016483;28;20362;-76
2022/07/18 00:21:31;;;;;;;;;;;15.00;99.90;;;14.14;91.50;102120.53;5003769;28;19921;-75
2022/07/18 00:23:57;;;;;;;;;;;15.10;99.90;;;14.13;91.57;102111.72;5018821;28;19911;-76
2022/07/18 00:26:23;;;;;;;;;;;15.10;99.90;;;14.13;90.74;102106.44;5018005;28;19912;-76
2022/07/18 00:28:49;;;;;;;;;;;15.10;99.90;;;14.13;90.90;102109.06;4975659;28;19945;-76
2022/07/18 00:31:14;;;;;;;;;;;15.10;99.90;;;14.12;90.54;102112.66;5017882;28;19915;-75
2022/07/18 00:33:40;;;;;;;;;;;15.10;99.90;;;14.11;90.62;102108.25;4982613;28;19967;-76
2022/07/18 00:36:06;;;;;;;;;;;15.00;99.90;;;14.09;90.95;102104.81;5019576;28;19924;-76
2022/07/18 00:38:32;;;;;;;;;;;15.00;99.90;;;14.08;91.09;102107.50;4990744;28;19928;-76
2022/07/18 00:40:57;;;;;;;;;;;15.00;99.90;;;14.06;91.25;102101.41;5006015;28;19920;-76
2022/07/18 00:43:23;;;;;;;;;;;15.00;99.90;;;14.05;90.34;102097.91;4991356;28;19916;-75
2022/07/18 00:45:52;;;;;;;;;;;15.00;99.90;;;14.03;90.08;102112.13;5016873;28;19955;-76
2022/07/18 00:48:19;;;;;;;;;;;15.00;99.90;;;13.99;90.83;102121.97;5007592;28;19932;-76
2022/07/18 00:50:45;;;;;;;;;;;15.00;99.90;;;13.93;91.72;102116.91;5006068;28;22080;-76
2022/07/18 00:53:11;;;;;;;;;;;14.90;99.90;;;13.85;91.48;102119.03;5010245;28;19913;-76
2022/07/18 00:55:40;;;;;;;;;;;14.80;99.90;;;13.78;90.37;102115.75;4983390;28;19912;-76
2022/07/18 00:58:08;;;;;;;;;;;14.80;99.90;;;13.74;89.82;102128.22;5008688;28;19916;-76
2022/07/18 01:03:18;;;;;;;;;;;14.70;99.90;;;13.70;89.37;102113.38;5008142;28;19999;-76
2022/07/18 01:05:43;;;;;;;;;;;14.70;99.90;;;13.72;90.82;102108.88;5011328;28;19996;-76
2022/07/18 01:08:09;;;;;;;;;;;14.70;99.90;;;13.75;92.76;102098.16;5025856;28;19925;-76
2022/07/18 01:10:35;;;;;;;;;;;14.70;99.90;;;13.80;93.56;102095.38;4994732;28;20384;-76
2022/07/18 01:13:01;;;;;;;;;;;14.80;99.90;;;13.84;94.99;102104.88;5015802;28;20254;-76
2022/07/18 01:15:27;;;;;;;;;;;14.80;99.90;;;13.90;95.28;102093.22;5000671;28;20346;-76
2022/07/18 01:17:54;;;;;;;;;;;14.80;99.90;;;13.93;95.27;102099.28;5006904;28;19968;-75
2022/07/18 01:20:19;;;;;;;;;;;14.80;99.90;;;13.98;95.83;102099.09;5011452;28;19909;-76
2022/07/18 01:22:45;;;;;;;;;;;14.90;99.90;;;14.01;95.81;102095.44;5016959;28;20387;-76
2022/07/18 01:25:12;;;;;;;;;;;14.90;99.90;;;14.04;95.88;102096.19;5004539;28;19917;-78
2022/07/18 01:27:38;;;;;;;;;;;15.00;99.90;;;14.06;95.24;102096.13;5021265;28;20059;-76
2022/07/18 01:30:04;;;;;;;;;;;15.00;99.90;;;14.08;94.89;102095.16;4994382;28;19927;-76
2022/07/18 01:32:30;;;;;;;;;;;15.00;99.90;;;14.09;95.82;102096.88;5018678;28;19962;-76
2022/07/18 01:34:56;;;;;;;;;;;15.00;99.90;;;14.09;95.26;102091.56;5004947;28;20007;-76
2022/07/18 01:37:22;;;;;;;;;;;15.00;99.90;;;14.10;94.08;102093.31;5018869;28;19911;-77
2022/07/18 01:39:48;;;;;;;;;;;15.00;99.90;;;14.11;93.34;102088.88;5006879;28;19970;-76
2022/07/18 01:42:15;;;;;;;;;;;15.00;99.90;;;14.09;92.85;102088.91;5033665;28;19924;-76
2022/07/18 01:44:43;;;;;;;;;;;15.00;99.90;;;14.09;93.14;102091.56;5023511;28;19934;-76
2022/07/18 01:47:10;;;;;;;;;;;15.00;99.90;;;14.04;94.60;102088.25;4994541;28;20440;-76
2022/07/18 01:49:36;;;;;;;;;;;15.00;99.90;;;13.94;94.93;102085.09;5005794;28;19949;-76
2022/07/18 01:52:03;;;;;;;;;;;14.90;99.90;;;13.87;93.47;102080.09;4986593;28;19921;-77
2022/07/18 01:54:31;;;;;;;;;;;14.90;99.90;;;13.78;96.01;102075.16;5008488;28;19992;-76
2022/07/18 01:57:01;;;;;;;;;;;14.80;99.90;;;13.73;97.96;102078.84;5013276;28;19912;-76
2022/07/18 01:59:27;;;;;;;;;;;14.80;99.90;;;13.72;98.74;102081.56;4989688;28;19948;-76
2022/07/18 02:01:53;;;;;;;;;;;14.70;99.90;;;13.70;99.43;102083.41;5004242;28;20023;-76
2022/07/18 02:04:19;;;;;;;;;;;14.70;99.90;;;13.69;99.77;102098.44;4999503;28;19905;-77
2022/07/18 02:06:45;;;;;;;;;;;14.70;99.90;;;13.67;99.40;102089.69;5009665;28;19908;-76
2022/07/18 02:09:11;;;;;;;;;;;14.70;99.90;;;13.63;100.00;102095.13;5021580;28;19913;-76
2022/07/18 02:11:37;;;;;;;;;;;14.70;99.90;;;13.55;100.00;102100.72;5001317;28;19920;-76
2022/07/18 02:14:04;;;;;;;;;;;14.60;99.90;;;13.46;100.00;102101.91;5003497;28;19913;-76
2022/07/18 02:16:31;;;;;;;;;;;14.50;99.90;;;13.38;100.00;102103.97;5002843;28;19924;-76
2022/07/18 02:18:57;;;;;;;;;;;14.50;99.90;;;13.32;98.94;102097.13;5002357;28;19905;-76
2022/07/18 02:21:23;;;;;;;;;;;14.40;99.90;;;13.32;98.62;102105.06;4993598;28;19921;-76
2022/07/18 02:23:50;;;;;;;;;;;14.40;99.90;;;13.34;98.41;102091.78;5013614;28;20008;-75
2022/07/18 02:26:26;;;;;;;;;;;14.40;99.90;;;13.39;98.36;102099.53;4993283;28;20338;-75
2022/07/18 02:28:51;;;;;;;;;;;14.40;99.90;;;13.42;99.14;102105.59;5018250;28;19955;-75
2022/07/18 02:31:19;;;;;;;;;;;14.40;99.90;;;13.44;99.43;102094.97;4995318;28;20303;-76
2022/07/18 02:33:45;;;;;;;;;;;14.40;99.90;;;13.50;100.00;102103.53;5017762;28;20392;-77
2022/07/18 02:36:11;;;;;;;;;;;14.50;99.90;;;13.54;100.00;102098.97;5019622;28;19906;-77
2022/07/18 02:38:38;;;;;;;;;;;14.50;99.90;;;13.59;100.00;102102.34;5019121;28;19913;-76
2022/07/18 02:41:04;;;;;;;;;;;14.50;99.90;;;13.63;100.00;102098.66;5020354;28;20000;-76
2022/07/18 02:43:30;;;;;;;;;;;14.60;99.90;;;13.67;100.00;102105.56;5019023;28;20011;-76
2022/07/18 02:45:56;;;;;;;;;;;14.60;99.90;;;13.71;100.00;102098.34;5001704;28;19913;-76
2022/07/18 02:48:21;;;;;;;;;;;14.70;99.90;;;13.74;100.00;102101.75;5004981;28;19928;-76
2022/07/18 02:50:47;;;;;;;;;;;14.70;99.90;;;13.78;99.69;102093.69;4994229;28;19920;-76
2022/07/18 02:53:13;;;;;;;;;;;14.70;99.90;;;13.81;99.38;102097.09;5012629;28;19915;-76
2022/07/18 02:55:39;;;;;;;;;;;14.70;99.90;;;13.85;99.06;102092.53;5019058;28;19954;-76
2022/07/18 02:58:04;;;;;;;;;;;14.70;99.90;;;13.88;98.76;102092.41;5007782;28;20026;-76
2022/07/18 03:00:30;;;;;;;;;;;14.80;99.90;;;13.92;99.10;102094.88;4983820;28;20015;-76
2022/07/18 03:02:56;;;;;;;;;;;14.80;99.90;;;13.96;99.79;102090.34;5007729;28;19921;-77
2022/07/18 03:05:21;;;;;;;;;;;14.90;99.90;;;13.99;100.00;102089.34;5012564;28;19932;-76
2022/07/18 03:07:47;;;;;;;;;;;14.90;99.90;;;14.00;100.00;102077.84;5013073;28;19928;-76
2022/07/18 03:10:13;;;;;;;;;;;14.90;99.90;;;14.01;100.00;102088.34;5012527;28;20291;-76
2022/07/18 03:12:41;;;;;;;;;;;15.00;99.90;;;14.02;100.00;102092.75;5001495;28;19917;-76
2022/07/18 03:15:09;;;;;;;;;;;15.00;99.90;;;14.04;100.00;102090.00;5001095;28;19909;-76
2022/07/18 03:17:35;;;;;;;;;;;15.00;99.90;;;14.06;100.00;102093.47;5020810;28;19995;-76
2022/07/18 03:20:00;;;;;;;;;;;15.00;99.90;;;14.08;100.00;102089.88;4965607;28;20383;-76
2022/07/18 03:22:26;;;;;;;;;;;15.00;99.90;;;14.11;100.00;102087.06;5037874;28;19909;-76
2022/07/18 03:24:52;;;;;;;;;;;15.00;99.90;;;14.15;100.00;102090.47;5012801;28;19920;-76
2022/07/18 03:27:18;;;;;;;;;;;15.10;99.90;;;14.18;100.00;102081.53;5010776;28;19932;-76
2022/07/18 03:29:43;;;;;;;;;;;15.10;99.90;;;14.21;100.00;102090.25;5009260;28;19928;-76
2022/07/18 03:32:11;;;;;;;;;;;15.10;99.90;;;14.25;100.00;102088.31;5014188;28;19915;-77
2022/07/18 03:34:37;;;;;;;;;;;15.20;99.90;;;14.27;100.00;102086.47;5001094;28;19913;-76
2022/07/18 03:37:03;;;;;;;;;;;15.20;99.90;;;14.30;100.00;102086.34;4967886;28;20006;-76
2022/07/18 03:39:28;;;;;;;;;;;15.20;99.90;;;14.35;100.00;102087.00;5010985;28;19910;-77
2022/07/18 03:41:54;;;;;;;;;;;15.30;99.90;;;14.36;100.00;102080.78;5002048;28;19923;-77
2022/07/18 03:44:20;;;;;;;;;;;15.30;99.90;;;14.41;100.00;102081.47;4997974;28;20558;-76
2022/07/18 03:46:45;;;;;;;;;;;15.30;99.90;;;14.46;100.00;102079.47;5007015;28;19916;-76
2022/07/18 03:49:11;;;;;;;;;;;15.40;99.90;;;14.52;99.28;102084.53;5016488;28;19959;-76
2022/07/18 03:51:37;;;;;;;;;;;15.40;99.90;;;14.59;98.83;102073.72;5021308;28;19975;-76
2022/07/18 03:54:03;;;;;;;;;;;15.50;99.90;;;14.68;98.17;102073.31;5020568;28;19917;-76
2022/07/18 03:56:29;;;;;;;;;;;15.50;99.90;;;14.79;97.61;102080.81;5014933;28;20062;-76
2022/07/18 03:58:55;;;;;;;;;;;15.60;99.90;;;14.89;96.75;102079.50;5030826;28;19905;-76
2022/07/18 04:01:21;;;;;;;;;;;15.70;99.90;;;15.02;96.28;102077.19;5005216;28;19920;-76
2022/07/18 04:03:46;;;;;;;;;;;15.70;99.90;;;15.16;94.94;102080.06;5008518;28;19964;-76
2022/07/18 04:06:12;;;;;;;;;;;15.80;99.90;;;15.32;94.62;102085.56;4994577;28;19905;-76
2022/07/18 04:08:38;;;;;;;;;;;16.00;99.90;;;15.49;94.16;102076.84;5004198;28;19917;-76
2022/07/18 04:11:11;;;;;;;;;;;16.10;99.90;;;15.74;93.36;102081.91;4999072;28;19925;-76
2022/07/18 04:13:36;;;;;;;;;;;16.40;99.90;;;16.86;89.05;102083.56;4993858;28;20408;-76
2022/07/18 04:16:02;;;;;;;;;;;17.20;99.90;;;16.87;86.97;102070.19;5003022;28;19971;-76
2022/07/18 04:18:28;;;;;;;;;;;17.30;99.90;;;16.86;85.83;102081.75;4993735;28;19917;-76
2022/07/18 04:20:54;;;;;;;;;;;17.40;99.90;;;16.81;85.71;102083.78;5003394;28;19912;-77
2022/07/18 04:23:22;;;;;;;;;;;17.40;99.90;;;16.73;85.35;102083.28;4991725;28;19905;-76
2022/07/18 04:25:47;;;;;;;;;;;17.40;99.90;;;16.58;85.97;102080.44;5009008;28;19917;-76
2022/07/18 04:28:13;;;;;;;;;;;17.30;99.90;;;16.46;87.37;102078.44;4984353;28;20315;-77
2022/07/18 04:30:40;;;;;;;;;;;17.30;99.90;;;16.40;88.03;102071.59;4986186;28;20369;-77
2022/07/18 04:33:08;;;;;;;;;;;17.20;99.90;;;16.39;88.59;102074.34;5010441;28;19905;-77
2022/07/18 04:35:38;;;;;;;;;;;17.20;99.90;;;16.48;88.25;102084.53;4999225;28;20381;-76
2022/07/18 04:38:05;;;;;;;;;;;17.20;99.90;;;16.60;88.08;102081.22;4991809;28;19913;-76
2022/07/18 04:40:31;;;;;;;;;;;17.30;99.90;;;16.78;86.86;102091.88;4986312;28;19909;-77
2022/07/18 04:42:57;;;;;;;;;;;17.40;99.90;;;17.03;85.95;102091.50;5011353;28;19947;-76
2022/07/18 04:45:23;;;;;;;;;;;17.50;99.90;;;17.41;84.83;102088.63;4999733;28;19913;-76
2022/07/18 04:47:50;;;;;;;;;;;17.70;99.90;;;17.63;82.55;102091.00;5018797;28;19905;-76
2022/07/18 04:50:16;;;;;;;;;;;17.90;99.90;;;17.86;81.63;102084.44;5007951;28;19943;-76
2022/07/18 04:52:44;;;;;;;;;;;18.10;99.90;;;19.16;78.72;102097.31;4996638;28;19905;-76
2022/07/18 04:55:11;;;;;;;;;;;18.70;99.90;;;20.87;71.15;102102.38;5003742;28;20569;-76
2022/07/18 04:57:37;;;;;;;;;;;19.70;99.90;;;24.11;61.79;102104.94;5010162;28;20326;-77
2022/07/18 05:00:10;;;;;;;;;;;21.40;99.90;;;27.17;53.36;102109.34;5001786;28;20391;-76
2022/07/18 05:02:41;;;;;;;;;;;23.40;99.90;;;29.51;47.89;102116.59;5001081;28;19919;-76
2022/07/18 05:05:09;;;;;;;;;;;25.50;99.90;;;31.30;44.21;102116.13;5000019;28;19909;-76
2022/07/18 05:07:35;;;;;;;;;;;27.30;99.90;;;32.92;41.36;102120.78;4999335;28;20369;-76
2022/07/18 05:10:03;;;;;;;;;;;30.00;97.10;;;34.16;39.49;102128.38;5004057;28;19912;-76
2022/07/18 05:12:29;;;;;;;;;;;30.00;97.20;;;35.27;37.56;102131.41;4957628;28;19918;-75
2022/07/18 05:14:55;;;;;;;;;;;31.30;95.30;;;34.89;37.05;102137.25;5003337;28;19909;-75
2022/07/18 05:17:21;;;;;;;;;;;31.90;94.20;;;35.95;36.07;102147.97;5013121;28;19912;-76
2022/07/18 05:19:46;;;;;;;;;;;32.40;93.30;;;36.81;35.18;102157.44;4962325;28;19970;-75
2022/07/18 05:22:12;;;;;;;;;;;33.30;91.90;;;37.51;34.11;102154.97;5021452;28;19995;-75
2022/07/18 05:24:38;;;;;;;;;;;33.60;92.40;;;37.98;33.36;102161.13;5004808;28;19913;-75
2022/07/18 05:27:04;;;;;;;;;;;34.40;90.60;;;38.17;32.77;102164.88;5005474;28;19924;-75
2022/07/18 05:29:29;;;;;;;;;;;34.50;91.00;;;38.20;32.03;102166.31;4999329;28;19942;-75
2022/07/18 05:31:56;;;;;;;;;;;34.80;90.10;;;38.61;31.34;102192.53;5012244;28;19927;-75
2022/07/18 05:34:21;;;;;;;;;;;35.10;88.60;;;38.76;31.75;102195.78;4973650;28;19905;-75
2022/07/18 05:36:47;;;;;;;;;;;35.20;89.20;;;39.08;30.56;102198.50;5011093;28;19954;-75
2022/07/18 05:39:13;;;;;;;;;;;35.40;87.30;;;39.70;30.31;102201.22;5012853;28;19938;-75
2022/07/18 05:41:39;;;;;;;;;;;35.70;86.90;;;40.51;30.34;102201.84;4976129;28;19917;-75
2022/07/18 05:44:04;;;;;;;;;;;36.20;88.10;;;40.94;29.28;102206.25;4997702;28;20266;-75
2022/07/18 05:46:30;;;;;;;;;;;36.70;86.20;;;40.12;28.98;102210.44;5003475;28;19944;-75
2022/07/18 05:48:56;;;;;;;;;;;36.90;82.90;;;40.41;29.89;102216.19;4994070;28;19964;-75
2022/07/18 05:51:24;;;;;;;;;;;36.90;85.50;;;40.70;28.26;102221.91;5004974;28;19912;-74
2022/07/18 05:53:50;;;;;;;;;;;37.00;82.90;;;40.94;28.18;102209.00;5005521;28;19925;-76
2022/07/18 05:56:16;;;;;;;;;;;37.10;82.60;;;41.05;27.92;102219.19;5019044;28;19905;-75
2022/07/18 05:58:41;;;;;;;;;;;37.40;81.50;;;41.40;27.17;102218.38;5014218;28;19905;-75
2022/07/18 06:01:07;;;;;;;;;;;37.60;80.00;;;41.64;28.01;102215.59;5023218;28;19920;-76
2022/07/18 06:03:33;;;;;;;;;;;37.90;81.90;;;41.59;27.35;102221.84;5011113;28;20388;-75
2022/07/18 06:05:58;;;;;;;;;;;38.10;79.20;;;41.97;26.69;102228.72;4996658;28;19919;-75
2022/07/18 06:08:24;;;;;;;;;;;38.30;78.60;;;42.13;27.40;102227.09;5001072;28;19951;-75
2022/07/18 06:10:50;;;;;;;;;;;38.60;78.30;;;42.16;26.57;102224.69;4993470;28;20012;-75
2022/07/18 06:13:16;;;;;;;;;;;39.00;77.80;;;42.30;25.35;102216.91;4998847;28;19916;-75
2022/07/18 06:15:42;;;;;;;;;;;39.20;73.90;;;42.46;25.08;102212.50;4986867;28;19905;-75
2022/07/18 06:18:07;;;;;;;;;;;39.40;72.60;;;42.31;26.22;102217.75;4977333;28;19940;-75
2022/07/18 06:20:33;;;;;;;;;;;39.60;76.00;;;42.58;25.52;102216.03;4975269;28;19919;-76
2022/07/18 06:22:59;;;;;;;;;;;39.80;74.90;;;42.95;26.46;102218.31;5005584;28;19904;-75
2022/07/18 06:25:24;;;;;;;;;;;40.00;75.90;;;42.76;25.62;102216.88;4993180;28;19931;-75
2022/07/18 06:27:50;;;;;;;;;;;40.30;73.30;;;42.66;24.26;102216.72;5004958;28;19967;-75
2022/07/18 06:30:16;;;;;;;;;;;40.40;69.90;;;42.88;23.68;102225.16;5001385;28;19928;-75
2022/07/18 06:32:42;;;;;;;;;;;40.40;68.50;;;42.87;24.64;102213.22;5007233;28;19917;-76
2022/07/18 06:35:10;;;;;;;;;;;40.50;69.30;;;43.23;25.40;102208.19;4997178;28;19944;-75
2022/07/18 06:37:37;;;;;;;;;;;40.80;73.30;;;43.01;25.06;102211.78;5022076;28;19939;-76
2022/07/18 06:40:03;;;;;;;;;;;40.90;70.10;;;42.76;24.87;102216.88;5013804;28;19909;-75
2022/07/18 06:42:29;;;;;;;;;;;40.90;69.40;;;43.19;24.57;102210.63;5020533;28;19912;-75
2022/07/18 06:44:55;;;;;;;;;;;41.10;67.60;;;43.47;24.46;102213.53;5016760;28;20391;-75
2022/07/18 06:47:23;;;;;;;;;;;41.30;67.60;;;43.17;24.15;102209.22;5027658;28;19915;-76
2022/07/18 06:49:51;;;;;;;;;;;41.50;67.20;;;43.13;24.06;102208.03;5019915;28;19958;-75
2022/07/18 06:52:17;;;;;;;;;;;41.40;66.20;;;42.87;23.38;102204.91;5003345;28;19916;-76
2022/07/18 06:54:42;;;;;;;;;;;41.40;64.20;;;42.06;24.95;102185.75;4993469;28;20574;-76
2022/07/18 06:57:09;;;;;;;;;;;41.20;65.90;;;41.18;25.62;102187.75;5024672;28;20610;-75
2022/07/18 06:59:36;;;;;;;;;;;40.90;66.30;;;39.19;27.98;102175.72;5018331;28;19917;-75
2022/07/18 07:02:02;;;;;;;;;;;40.00;67.80;;;37.85;27.48;102172.22;5020748;28;20687;-76
2022/07/18 07:04:30;;;;;;;;;;;38.80;64.20;;;37.32;27.97;102168.56;5010344;28;20562;-75
2022/07/18 07:06:56;;;;;;;;;;;37.70;66.20;;;37.93;28.10;102163.72;5018151;28;19908;-75
2022/07/18 07:09:21;;;;;;;;;;;37.40;69.30;;;38.88;27.28;102160.09;5024359;28;19916;-75
2022/07/18 07:11:47;;;;;;;;;;;37.60;68.20;;;39.61;27.14;102153.81;4996798;28;19924;-75
2022/07/18 07:14:13;;;;;;;;;;;38.20;69.00;;;39.10;26.05;102158.63;5013449;28;19973;-76
2022/07/18 07:16:38;;;;;;;;;;;38.40;65.40;;;35.99;27.67;102157.47;5008062;28;20600;-76
2022/07/18 07:19:04;;;;;;;;;;;37.40;62.80;;;34.14;30.23;102150.41;4986884;28;19924;-76
2022/07/18 07:21:32;;;;;;;;;;;35.90;66.50;;;31.96;32.09;102135.78;5010711;28;19921;-75
2022/07/18 07:23:58;;;;;;;;;;;34.20;66.70;;;29.84;34.57;102124.91;5026013;28;19909;-76
2022/07/18 07:26:24;;;;;;;;;;;32.40;69.60;;;28.92;37.76;102108.28;5011287;28;20400;-75
2022/07/18 07:28:49;;;;;;;;;;;31.00;74.80;;;28.66;38.86;102094.72;4992692;28;19925;-76
2022/07/18 07:31:15;;;;;;;;;;;29.70;77.70;;;28.73;39.06;102103.06;5008175;28;20858;-76
2022/07/18 07:33:44;;;;;;;;;;;29.60;79.30;;;28.18;40.45;102093.22;5001250;28;19932;-76
2022/07/18 07:36:10;;;;;;;;;;;29.10;80.70;;;27.99;39.81;102083.38;5019896;28;19930;-75
2022/07/18 07:38:37;;;;;;;;;;;28.80;80.50;;;27.56;40.76;102080.34;5000482;28;19995;-76
2022/07/18 07:41:02;;;;;;;;;;;28.40;81.20;;;27.00;41.76;102071.28;4999383;28;20012;-75
2022/07/18 07:43:28;;;;;;;;;;;28.00;82.20;;;26.52;42.17;102074.03;5002500;28;20376;-76
2022/07/18 07:45:55;;;;;;;;;;;27.60;82.70;;;26.13;43.59;102066.81;4987884;28;19909;-76
2022/07/18 07:48:22;;;;;;;;;;;27.20;84.50;;;25.71;43.70;102071.53;5025874;28;19905;-76
2022/07/18 07:50:47;;;;;;;;;;;26.70;84.30;;;25.25;44.88;102072.91;5010699;28;20321;-75
2022/07/18 07:53:13;;;;;;;;;;;26.30;85.70;;;24.92;45.72;102070.34;4979573;28;19978;-76
2022/07/18 07:55:39;;;;;;;;;;;26.00;86.90;;;24.76;46.67;102072.63;4974120;28;20303;-75
2022/07/18 07:58:05;;;;;;;;;;;25.70;88.30;;;24.60;46.92;102067.72;5031019;28;19924;-76
2022/07/18 08:00:31;;;;;;;;;;;25.50;88.80;;;24.24;47.92;102068.94;5009124;28;19925;-76
2022/07/18 08:03:02;;;;;;;;;;;25.30;90.10;;;23.96;49.04;102057.78;5009185;28;19959;-76
2022/07/18 08:05:29;;;;;;;;;;;25.00;90.30;;;23.61;49.72;102061.50;4988913;28;19913;-75
2022/07/18 08:07:57;;;;;;;;;;;24.70;90.70;;;23.60;50.03;102066.97;5035086;28;20018;-75
2022/07/18 08:10:22;;;;;;;;;;;24.60;91.10;;;23.32;50.63;102066.50;5002623;28;19965;-76
2022/07/18 08:12:48;;;;;;;;;;;24.30;91.40;;;23.38;51.20;102066.03;5010532;28;19908;-75
2022/07/18 08:15:14;;;;;;;;;;;24.20;91.70;;;23.30;51.95;102057.72;5020037;28;20031;-76
2022/07/18 08:17:40;;;;;;;;;;;24.10;92.40;;;23.28;52.18;102067.72;5008710;28;20105;-75
2022/07/18 08:20:07;;;;;;;;;;;24.10;92.50;;;23.22;52.42;102061.03;5008256;28;19917;-76
2022/07/18 08:22:33;;;;;;;;;;;24.00;92.70;;;23.06;53.71;102064.03;4971009;28;19923;-76
2022/07/18 08:24:58;;;;;;;;;;;23.90;93.40;;;23.09;53.58;102062.97;5018122;28;19916;-75
2022/07/18 08:27:24;;;;;;;;;;;23.90;92.30;;;23.16;51.99;102055.28;5004167;28;19933;-75
2022/07/18 08:29:50;;;;;;;;;;;23.80;92.60;;;23.23;52.59;102051.13;5014176;28;19921;-75
2022/07/18 08:32:15;;;;;;;;;;;23.90;92.80;;;23.28;52.36;102055.16;5023318;28;19912;-75
2022/07/18 08:34:41;;;;;;;;;;;23.90;93.10;;;23.30;52.29;102055.03;5024147;28;19908;-76
2022/07/18 08:37:07;;;;;;;;;;;23.90;93.20;;;23.33;52.38;102041.34;5008412;28;19936;-75
2022/07/18 08:39:33;;;;;;;;;;;23.90;93.30;;;23.38;52.17;102039.13;5005389;28;19925;-76
2022/07/18 08:42:02;;;;;;;;;;;24.00;93.20;;;23.46;51.79;102047.44;5019228;28;19909;-75
2022/07/18 08:44:28;;;;;;;;;;;23.90;93.10;;;23.46;51.97;102042.06;5010906;28;19904;-76
2022/07/18 08:46:56;;;;;;;;;;;24.00;93.10;;;23.54;52.24;102049.50;5006202;28;19940;-76
2022/07/18 08:49:22;;;;;;;;;;;24.10;93.30;;;23.62;52.46;102041.69;4997224;28;19913;-75
2022/07/18 08:51:48;;;;;;;;;;;24.10;93.60;;;23.70;52.25;102041.91;5003309;28;19951;-75
2022/07/18 08:54:15;;;;;;;;;;;24.20;93.50;;;23.86;53.38;102035.31;5020377;28;19913;-76
2022/07/18 08:56:41;;;;;;;;;;;24.20;94.10;;;23.92;52.94;102045.56;5005718;28;20355;-76
2022/07/18 08:59:07;;;;;;;;;;;24.40;93.90;;;23.78;53.51;102033.25;5013510;28;19935;-76
2022/07/18 09:01:33;;;;;;;;;;;24.40;94.10;;;23.75;53.87;102039.72;4997306;28;19904;-76
2022/07/18 09:04:24;;;;;;;;;;;24.40;94.30;;;23.72;53.23;102033.72;4989204;28;19958;-76
2022/07/18 09:06:52;;;;;;;;;;;24.30;93.90;;;24.04;53.80;102032.91;5017395;28;20383;-77
2022/07/18 09:09:18;;;;;;;;;;;24.40;94.10;;;24.12;52.48;102041.22;4984353;28;19911;-76
2022/07/18 09:11:55;;;;;;;;;;;24.50;94.20;;;24.46;51.58;102039.22;4995857;28;19935;-76
2022/07/18 09:14:44;;;;;;;;;;;24.70;92.70;;;24.50;50.67;102043.38;5011605;28;19917;-75
2022/07/18 09:17:11;;;;;;;;;;;24.80;93.00;;;24.32;50.51;102032.31;5013352;28;19921;-75
2022/07/18 09:19:39;;;;;;;;;;;24.80;92.40;;;24.43;50.65;102033.22;5011748;28;20015;-76
2022/07/18 09:22:15;;;;;;;;;;;24.80;92.80;;;24.52;50.41;102027.97;4999301;28;19918;-76
2022/07/18 09:25:02;;;;;;;;;;;24.90;92.60;;;24.70;49.31;102038.13;5025020;28;19958;-76
2022/07/18 09:27:37;;;;;;;;;;;25.00;91.90;;;24.63;49.68;102034.28;5011649;28;20015;-76
2022/07/18 09:30:29;;;;;;;;;;;25.00;92.20;;;24.53;49.68;102034.19;5032788;28;19912;-77
2022/07/18 09:33:08;;;;;;;;;;;25.00;92.10;;;24.51;49.74;102030.78;4999276;28;20012;-76
2022/07/18 09:35:38;;;;;;;;;;;25.00;92.30;;;24.38;49.95;102032.78;5015380;28;19905;-76
2022/07/18 09:38:08;;;;;;;;;;;24.90;92.30;;;24.16;50.62;102027.38;5003495;28;20421;-76
2022/07/18 09:40:39;;;;;;;;;;;24.80;92.60;;;23.90;50.91;102026.00;4986349;28;19996;-76
2022/07/18 09:43:09;;;;;;;;;;;24.60;92.70;;;23.65;52.12;102019.06;5011733;28;19936;-76
2022/07/18 09:45:41;;;;;;;;;;;24.30;92.80;;;23.46;52.49;102012.50;4993746;28;20411;-75
2022/07/18 09:48:12;;;;;;;;;;;24.10;93.50;;;23.33;53.03;102009.94;5019264;28;19905;-76
2022/07/18 09:50:51;;;;;;;;;;;24.10;93.70;;;23.31;53.28;102006.53;4993629;28;19973;-75
2022/07/18 09:53:25;;;;;;;;;;;24.00;93.80;;;23.30;53.43;102002.16;5012368;28;19909;-75
2022/07/18 09:55:58;;;;;;;;;;;23.90;94.10;;;23.42;52.83;102005.66;5005075;28;19923;-76
2022/07/18 09:58:31;;;;;;;;;;;23.90;93.80;;;23.53;52.10;102002.09;5021533;28;19928;-75
2022/07/18 10:01:01;;;;;;;;;;;24.00;93.40;;;23.72;52.02;102004.16;5013943;28;19920;-75
2022/07/18 10:03:30;;;;;;;;;;;24.10;93.60;;;23.92;50.97;102013.28;5001530;28;19955;-75
2022/07/18 10:05:58;;;;;;;;;;;24.20;93.20;;;24.14;50.32;102002.41;5017442;28;20011;-75
2022/07/18 10:08:26;;;;;;;;;;;24.50;92.80;;;24.34;51.24;102011.53;5017285;28;19912;-75
2022/07/18 10:10:54;;;;;;;;;;;24.60;93.40;;;24.43;51.22;102011.69;5000851;28;19912;-75
2022/07/18 10:13:21;;;;;;;;;;;24.70;93.30;;;24.38;49.66;102011.25;5014710;28;19958;-75
2022/07/18 10:15:50;;;;;;;;;;;24.80;92.30;;;24.28;50.22;102009.34;5022629;28;20424;-76
2022/07/18 10:18:27;;;;;;;;;;;24.80;92.70;;;24.19;50.94;102009.25;4992016;28;20964;-75
2022/07/18 10:20:54;;;;;;;;;;;24.70;93.10;;;24.21;50.24;102013.53;5007233;28;19921;-75
2022/07/18 10:23:41;;;;;;;;;;;24.70;92.50;;;24.32;50.59;102020.72;5021744;28;21695;-75
2022/07/18 10:26:25;;;;;;;;;;;24.70;93.00;;;24.39;49.39;102015.66;5007317;28;19916;-75
2022/07/18 10:29:02;;;;;;;;;;;24.80;91.80;;;24.36;50.00;102023.00;4993927;28;19917;-75
2022/07/18 10:31:58;;;;;;;;;;;24.80;92.60;;;24.25;49.99;102020.34;4992748;28;20361;-75
2022/07/18 10:34:31;;;;;;;;;;;24.80;92.50;;;24.21;50.73;102013.53;4993983;28;19917;-76
2022/07/18 10:37:00;;;;;;;;;;;24.70;92.80;;;24.05;50.57;102005.88;5010490;28;19920;-75
2022/07/18 10:39:36;;;;;;;;;;;24.60;92.60;;;24.02;51.54;102008.00;4978286;28;19917;-75
2022/07/18 10:42:13;;;;;;;;;;;24.60;93.20;;;23.66;51.78;102002.81;4984458;28;19916;-76
2022/07/18 10:44:42;;;;;;;;;;;24.50;93.30;;;23.55;52.51;102003.69;5022495;28;19913;-76
2022/07/18 10:49:53;;;;;;;;;;;24.10;93.40;;;23.18;54.22;102018.41;5039883;22;19922;-76
2022/07/18 10:52:35;;;;;;;;;;;24.00;94.30;;;23.16;54.41;102017.66;4999159;28;20015;-76
2022/07/18 10:55:16;;;;;;;;;;;23.90;94.50;;;23.18;54.35;102015.72;5002356;28;19920;-75
2022/07/18 10:57:49;;;;;;;;;;;23.80;94.50;;;23.22;54.00;102003.72;5020795;28;19912;-76
2022/07/18 11:00:24;;;;;;;;;;;23.80;94.10;;;23.26;54.45;102005.19;4980878;28;19921;-76
2022/07/18 11:03:10;;;;;;;;;;;23.80;94.80;;;23.26;54.04;102003.38;4999373;28;19967;-75
2022/07/18 11:05:47;;;;;;;;;;;23.90;94.70;;;23.23;54.96;102000.91;4978307;28;20004;-75
2022/07/18 11:08:13;;;;;;;;;;;23.80;95.20;;;23.23;55.43;101992.84;4998632;28;19924;-76
2022/07/18 11:10:45;;;;;;;;;;;23.80;95.30;;;23.32;55.21;101999.31;5001625;28;19940;-76
2022/07/18 11:13:27;;;;;;;;;;;23.90;95.20;;;23.30;55.44;101994.09;5003416;28;19921;-75
2022/07/18 11:16:14;;;;;;;;;;;23.80;95.30;;;23.38;55.36;101982.69;4987114;28;19911;-76
2022/07/18 11:18:51;;;;;;;;;;;23.90;95.50;;;23.52;55.55;101986.94;4993874;28;19921;-76